Time;durP1;ratioP1;P1;durP2;ratioP2;P2;SDS_P1;SDS_P2;PMS_P1;PMS_P2;Temp;Humidity;BMP_temperature;BMP_pressure;BME280_temperature;BME280_humidity;BME280_pressure;Samples;Min_cycle;Max_cycle;Signal;HPM_P1;HPM_P2
2022/11/17 00:01:06;;;;;;;19.77;11.32;;;;;;;;;;5035226;28;20505;-65
2022/11/17 00:03:32;;;;;;;20.80;11.85;;;;;;;;;;5034707;28;20435;-64
2022/11/17 00:06:01;;;;;;;25.30;12.15;;;;;;;;;;5054127;28;20028;-66
2022/11/17 00:08:27;;;;;;;19.70;11.98;;;;;;;;;;5036085;28;20083;-64
2022/11/17 00:10:53;;;;;;;18.45;11.95;;;;;;;;;;5035956;28;20029;-65
2022/11/17 00:16:04;;;;;;;20.73;11.25;;;;;;;;;;5053980;28;20086;-67
2022/11/17 00:21:18;;;;;;;22.08;11.50;;;;;;;;;;5054000;28;20051;-65
2022/11/17 00:23:47;;;;;;;22.08;12.13;;;;;;;;;;5052951;28;20033;-66
2022/11/17 00:26:17;;;;;;;20.73;11.75;;;;;;;;;;5035511;28;20484;-64
2022/11/17 00:28:43;;;;;;;19.67;10.68;;;;;;;;;;5053370;28;20078;-66
2022/11/17 00:34:04;;;;;;;20.92;11.65;;;;;;;;;;5052486;28;20543;-64
2022/11/17 00:36:34;;;;;;;20.70;11.20;;;;;;;;;;5052404;28;20021;-64
2022/11/17 00:39:00;;;;;;;24.50;13.18;;;;;;;;;;5053030;28;20057;-65
2022/11/17 00:41:26;;;;;;;19.55;11.38;;;;;;;;;;5035088;28;20065;-64
2022/11/17 00:43:52;;;;;;;17.23;11.27;;;;;;;;;;5052513;28;20423;-65
2022/11/17 00:46:18;;;;;;;17.67;11.57;;;;;;;;;;5035159;28;20481;-64
2022/11/17 00:48:44;;;;;;;20.45;10.90;;;;;;;;;;5035186;28;20029;-66
2022/11/17 00:51:10;;;;;;;18.75;10.70;;;;;;;;;;5035036;28;20139;-63
2022/11/17 00:53:36;;;;;;;18.55;10.55;;;;;;;;;;5051899;28;20029;-65
2022/11/17 00:56:02;;;;;;;19.13;10.90;;;;;;;;;;5052737;28;20103;-62
2022/11/17 00:58:28;;;;;;;18.60;10.88;;;;;;;;;;5035011;28;20449;-62
2022/11/17 01:00:54;;;;;;;18.50;10.63;;;;;;;;;;5052833;28;20025;-65
2022/11/17 01:03:19;;;;;;;18.92;10.82;;;;;;;;;;5034054;28;20370;-64
2022/11/17 01:05:45;;;;;;;23.10;12.30;;;;;;;;;;5035124;28;20055;-64
2022/11/17 01:08:11;;;;;;;19.10;11.43;;;;;;;;;;5034988;28;20485;-65
2022/11/17 01:10:37;;;;;;;20.30;11.45;;;;;;;;;;5034983;28;20075;-61
2022/11/17 01:13:03;;;;;;;21.35;12.40;;;;;;;;;;5052214;28;20021;-67
2022/11/17 01:15:29;;;;;;;19.50;11.60;;;;;;;;;;5052706;28;20028;-64
2022/11/17 01:17:55;;;;;;;18.55;11.43;;;;;;;;;;5035078;28;20021;-65
2022/11/17 01:20:21;;;;;;;18.85;11.50;;;;;;;;;;5034915;28;20056;-65
2022/11/17 01:22:47;;;;;;;20.55;13.52;;;;;;;;;;5052479;28;20496;-64
2022/11/17 01:25:13;;;;;;;19.45;11.05;;;;;;;;;;5034211;28;20032;-64
2022/11/17 01:27:39;;;;;;;22.27;11.88;;;;;;;;;;5052679;28;20032;-65
2022/11/17 01:30:06;;;;;;;21.67;11.75;;;;;;;;;;5034602;28;20375;-64
2022/11/17 01:32:32;;;;;;;23.25;12.77;;;;;;;;;;5034372;28;20029;-64
2022/11/17 01:34:58;;;;;;;22.13;12.25;;;;;;;;;;5033779;28;20055;-65
2022/11/17 01:37:24;;;;;;;20.23;11.73;;;;;;;;;;5052282;28;20017;-65
2022/11/17 01:39:50;;;;;;;19.35;12.30;;;;;;;;;;5052489;28;20024;-65
2022/11/17 01:42:18;;;;;;;22.23;13.00;;;;;;;;;;5052169;28;20496;-64
2022/11/17 01:44:44;;;;;;;28.48;12.93;;;;;;;;;;5051903;28;20021;-65
2022/11/17 01:47:16;;;;;;;22.33;13.32;;;;;;;;;;5052080;28;20044;-64
2022/11/17 01:49:42;;;;;;;22.80;13.70;;;;;;;;;;5052332;28;20033;-65
2022/11/17 01:52:09;;;;;;;19.75;12.77;;;;;;;;;;5052542;28;20108;-64
2022/11/17 01:54:36;;;;;;;21.38;12.88;;;;;;;;;;5052408;28;20083;-64
2022/11/17 01:57:04;;;;;;;26.42;14.38;;;;;;;;;;5034465;28;20021;-64
2022/11/17 01:59:51;;;;;;;24.75;13.98;;;;;;;;;;5051892;28;20079;-64
2022/11/17 02:02:17;;;;;;;28.30;13.98;;;;;;;;;;5034266;28;20039;-65
2022/11/17 02:04:48;;;;;;;23.65;14.60;;;;;;;;;;5033357;28;20060;-65
2022/11/17 02:07:18;;;;;;;23.23;14.23;;;;;;;;;;5034411;28;20029;-65
2022/11/17 02:09:44;;;;;;;23.50;14.18;;;;;;;;;;5034542;28;20025;-63
2022/11/17 02:12:11;;;;;;;22.38;14.55;;;;;;;;;;5051952;28;20036;-66
2022/11/17 02:14:37;;;;;;;21.85;15.07;;;;;;;;;;5051760;28;20079;-65
2022/11/17 02:17:04;;;;;;;20.42;14.43;;;;;;;;;;5052389;28;20021;-63
2022/11/17 02:19:33;;;;;;;23.30;13.93;;;;;;;;;;5051768;28;20432;-65
2022/11/17 02:21:59;;;;;;;22.25;14.50;;;;;;;;;;5052310;28;20025;-64
2022/11/17 02:24:44;;;;;;;23.77;14.23;;;;;;;;;;5033466;28;20040;-61
2022/11/17 02:27:28;;;;;;;24.90;14.40;;;;;;;;;;5051625;28;20087;-63
2022/11/17 02:29:57;;;;;;;22.15;15.10;;;;;;;;;;5051857;28;20489;-64
2022/11/17 02:32:27;;;;;;;21.63;14.15;;;;;;;;;;5051634;28;20389;-63
2022/11/17 02:35:13;;;;;;;25.30;15.45;;;;;;;;;;5050933;28;20397;-63
2022/11/17 02:37:43;;;;;;;22.60;14.68;;;;;;;;;;5001193;28;20037;-65
2022/11/17 02:40:22;;;;;;;27.05;16.13;;;;;;;;;;5033961;28;20033;-65
2022/11/17 02:45:46;;;;;;;22.45;15.30;;;;;;;;;;5051400;28;20098;-64
2022/11/17 02:48:15;;;;;;;24.02;15.63;;;;;;;;;;5051286;28;20060;-66
2022/11/17 02:50:44;;;;;;;24.23;15.35;;;;;;;;;;5033757;28;20044;-64
2022/11/17 02:53:10;;;;;;;22.50;14.93;;;;;;;;;;5050346;28;20068;-63
2022/11/17 02:55:37;;;;;;;23.23;15.75;;;;;;;;;;5033222;28;20029;-63
2022/11/17 02:58:03;;;;;;;27.65;17.25;;;;;;;;;;5051443;28;20064;-64
2022/11/17 03:00:30;;;;;;;24.45;15.82;;;;;;;;;;5054054;28;20025;-62
2022/11/17 03:03:18;;;;;;;28.38;17.35;;;;;;;;;;5054752;28;20370;-60
2022/11/17 03:05:55;;;;;;;22.33;15.17;;;;;;;;;;5036571;28;20120;-63
2022/11/17 03:08:30;;;;;;;25.10;16.48;;;;;;;;;;5054758;28;20325;-63
2022/11/17 03:10:58;;;;;;;26.20;15.68;;;;;;;;;;5036858;28;20025;-64
2022/11/17 03:13:24;;;;;;;25.27;16.13;;;;;;;;;;5036198;28;20025;-64
2022/11/17 03:15:54;;;;;;;23.23;15.98;;;;;;;;;;5036923;28;20283;-63
2022/11/17 03:18:40;;;;;;;26.08;16.80;;;;;;;;;;5036888;28;20025;-64
2022/11/17 03:21:12;;;;;;;24.80;16.45;;;;;;;;;;5054609;28;20440;-64
2022/11/17 03:23:38;;;;;;;24.17;16.25;;;;;;;;;;5053777;28;20111;-64
2022/11/17 03:26:07;;;;;;;23.98;16.70;;;;;;;;;;5036389;28;20084;-64
2022/11/17 03:28:33;;;;;;;26.90;17.45;;;;;;;;;;5054440;28;20109;-65
2022/11/17 03:31:00;;;;;;;24.33;17.08;;;;;;;;;;5036471;28;20029;-65
2022/11/17 03:33:27;;;;;;;24.42;17.40;;;;;;;;;;5053489;28;20053;-63
2022/11/17 03:36:04;;;;;;;26.20;16.98;;;;;;;;;;5054144;28;20109;-64
2022/11/17 03:38:33;;;;;;;28.17;17.40;;;;;;;;;;5054249;28;20086;-64
2022/11/17 03:40:59;;;;;;;;;;;;;;;;;;5037008;28;20021;-64
2022/11/17 03:43:26;;;;;;;24.75;16.83;;;;;;;;;;5053822;28;19965;-63
2022/11/17 03:45:54;;;;;;;26.15;17.70;;;;;;;;;;5053944;28;20502;-62
2022/11/17 03:48:26;;;;;;;24.37;17.97;;;;;;;;;;5054285;28;20025;-64
2022/11/17 03:50:56;;;;;;;26.05;18.58;;;;;;;;;;5036054;28;20366;-64
2022/11/17 03:53:23;;;;;;;24.92;18.85;;;;;;;;;;5053284;28;20051;-64
2022/11/17 03:55:59;;;;;;;24.75;17.50;;;;;;;;;;5036114;28;20106;-63
2022/11/17 03:58:29;;;;;;;26.20;18.83;;;;;;;;;;5053897;28;20021;-64
2022/11/17 04:00:56;;;;;;;27.25;19.48;;;;;;;;;;5053929;28;20021;-64
2022/11/17 04:03:22;;;;;;;23.40;18.33;;;;;;;;;;5053451;28;20025;-62
2022/11/17 04:05:48;;;;;;;25.55;18.80;;;;;;;;;;5055629;28;20029;-63
2022/11/17 04:08:14;;;;;;;25.88;19.38;;;;;;;;;;5055761;28;20106;-64
2022/11/17 04:16:09;;;;;;;24.80;19.98;;;;;;;;;;5073639;28;20047;-64
2022/11/17 04:18:35;;;;;;;24.63;19.83;;;;;;;;;;5073375;28;20020;-64
2022/11/17 04:21:01;;;;;;;29.73;20.00;;;;;;;;;;5073838;28;20025;-63
2022/11/17 04:23:28;;;;;;;23.58;19.30;;;;;;;;;;5073261;28;20024;-63
2022/11/17 04:28:41;;;;;;;25.70;19.85;;;;;;;;;;5073661;28;20144;-65
2022/11/17 04:31:07;;;;;;;25.08;20.80;;;;;;;;;;5055432;28;20032;-64
2022/11/17 04:33:34;;;;;;;30.00;24.85;;;;;;;;;;5054430;28;20035;-65
2022/11/17 04:36:00;;;;;;;29.23;26.25;;;;;;;;;;5055017;28;20024;-64
2022/11/17 04:38:26;;;;;;;29.48;26.33;;;;;;;;;;5073055;28;20024;-63
2022/11/17 04:43:37;;;;;;;29.40;26.40;;;;;;;;;;5072500;28;20085;-64
2022/11/17 04:46:03;;;;;;;29.65;26.75;;;;;;;;;;5073008;28;20053;-63
2022/11/17 04:48:29;;;;;;;29.92;26.90;;;;;;;;;;5055240;28;20024;-63
2022/11/17 04:50:56;;;;;;;29.25;26.33;;;;;;;;;;5072787;28;20056;-64
2022/11/17 04:53:22;;;;;;;29.55;26.65;;;;;;;;;;5071932;28;20029;-63
2022/11/17 04:55:49;;;;;;;30.10;26.90;;;;;;;;;;5072435;28;20452;-63
2022/11/17 04:58:15;;;;;;;30.25;27.10;;;;;;;;;;5054838;28;20052;-64
2022/11/17 05:00:41;;;;;;;30.48;27.25;;;;;;;;;;5072699;28;20023;-64
2022/11/17 05:03:07;;;;;;;28.92;25.95;;;;;;;;;;5072142;28;20025;-63
2022/11/17 05:05:33;;;;;;;30.45;27.35;;;;;;;;;;5072325;28;20499;-63
2022/11/17 05:07:59;;;;;;;29.17;26.30;;;;;;;;;;5054916;28;20661;-61
2022/11/17 05:13:23;;;;;;;30.63;27.58;;;;;;;;;;5071984;28;20035;-65
2022/11/17 05:18:34;;;;;;;29.02;26.00;;;;;;;;;;5072815;28;20086;-65
2022/11/17 05:21:04;;;;;;;28.45;25.45;;;;;;;;;;5055271;28;20021;-65
2022/11/17 05:26:14;;;;;;;28.65;25.85;;;;;;;;;;5072404;28;20097;-62
2022/11/17 05:28:40;;;;;;;28.88;25.83;;;;;;;;;;5054298;28;20476;-63
2022/11/17 05:31:06;;;;;;;27.48;24.58;;;;;;;;;;5054539;28;20028;-61
2022/11/17 05:33:32;;;;;;;27.77;24.88;;;;;;;;;;5053161;28;20027;-64
2022/11/17 05:35:58;;;;;;;27.83;25.05;;;;;;;;;;5071999;28;20024;-64
2022/11/17 05:38:24;;;;;;;27.20;24.40;;;;;;;;;;5071966;28;20174;-64
2022/11/17 05:40:50;;;;;;;28.75;25.67;;;;;;;;;;5072050;28;20059;-64
2022/11/17 05:43:16;;;;;;;27.85;24.92;;;;;;;;;;5071334;28;20103;-64
2022/11/17 05:48:28;;;;;;;26.17;23.35;;;;;;;;;;5050198;28;20052;-62
2022/11/17 05:50:54;;;;;;;28.50;25.48;;;;;;;;;;5051590;28;20029;-61
2022/11/17 05:53:21;;;;;;;27.05;24.35;;;;;;;;;;5050720;28;20079;-59
2022/11/17 05:55:47;;;;;;;26.85;24.05;;;;;;;;;;5051491;28;20025;-62
2022/11/17 05:58:16;;;;;;;26.90;24.08;;;;;;;;;;5051857;28;20024;-62
2022/11/17 06:00:42;;;;;;;28.15;23.38;;;;;;;;;;5066950;28;20064;-61
2022/11/17 06:03:12;;;;;;;27.42;23.80;;;;;;;;;;5050538;28;20100;-62
2022/11/17 06:05:39;;;;;;;26.92;24.13;;;;;;;;;;5051118;28;20025;-62
2022/11/17 06:08:06;;;;;;;28.92;24.80;;;;;;;;;;5051061;28;20120;-62
2022/11/17 06:10:33;;;;;;;26.88;23.98;;;;;;;;;;5051292;28;20079;-62
2022/11/17 06:12:59;;;;;;;27.63;23.45;;;;;;;;;;5051417;28;20056;-59
2022/11/17 06:15:25;;;;;;;27.05;24.23;;;;;;;;;;5050840;28;20061;-62
2022/11/17 06:17:54;;;;;;;26.77;23.88;;;;;;;;;;5051238;28;20031;-62
2022/11/17 06:20:22;;;;;;;26.10;23.30;;;;;;;;;;5051354;28;20021;-62
2022/11/17 06:22:49;;;;;;;28.75;25.65;;;;;;;;;;5066712;28;20029;-62
2022/11/17 06:25:16;;;;;;;27.23;24.42;;;;;;;;;;5050296;28;20486;-60
2022/11/17 06:27:42;;;;;;;27.17;24.42;;;;;;;;;;5051015;28;20130;-61
2022/11/17 06:30:08;;;;;;;26.73;23.92;;;;;;;;;;5066475;28;20041;-62
2022/11/17 06:32:35;;;;;;;25.83;23.08;;;;;;;;;;5050992;28;20021;-58
2022/11/17 06:35:02;;;;;;;24.60;22.00;;;;;;;;;;5067994;28;20029;-60
2022/11/17 06:37:28;;;;;;;25.95;23.25;;;;;;;;;;5055134;28;20083;-60
2022/11/17 06:39:54;;;;;;;27.20;24.10;;;;;;;;;;5054776;28;20037;-62
2022/11/17 06:43:02;;;;;;;26.42;23.70;;;;;;;;;;5054837;28;20120;-61
2022/11/17 06:45:07;;;;;;;27.70;24.77;;;;;;;;;;5052963;28;20025;-60
2022/11/17 06:47:33;;;;;;;25.23;22.70;;;;;;;;;;5045928;28;20092;-62
2022/11/17 06:49:58;;;;;;;25.25;22.58;;;;;;;;;;5049045;28;20033;-60
2022/11/17 06:52:24;;;;;;;25.13;22.52;;;;;;;;;;5034386;28;20036;-62
2022/11/17 06:54:50;;;;;;;25.83;23.13;;;;;;;;;;5042351;28;20021;-62
2022/11/17 06:57:17;;;;;;;25.15;22.65;;;;;;;;;;5052568;28;20563;-62
2022/11/17 06:59:43;;;;;;;25.67;23.00;;;;;;;;;;5052774;28;20116;-62
2022/11/17 07:02:09;;;;;;;26.90;22.60;;;;;;;;;;5052360;28;20059;-56
2022/11/17 07:04:35;;;;;;;26.15;23.48;;;;;;;;;;5053603;28;20023;-60
2022/11/17 07:07:01;;;;;;;25.60;22.98;;;;;;;;;;5054071;28;20035;-62
2022/11/17 07:09:27;;;;;;;25.30;22.83;;;;;;;;;;5053356;28;20029;-61
2022/11/17 07:11:53;;;;;;;25.40;22.90;;;;;;;;;;5052901;28;20487;-61
2022/11/17 07:14:19;;;;;;;25.02;22.40;;;;;;;;;;5053340;28;20029;-56
2022/11/17 07:16:45;;;;;;;26.00;23.40;;;;;;;;;;5054215;28;20016;-59
2022/11/17 07:19:12;;;;;;;27.10;22.80;;;;;;;;;;5054196;28;20446;-58
2022/11/17 07:21:38;;;;;;;24.98;22.40;;;;;;;;;;5034359;28;20017;-60
2022/11/17 07:24:04;;;;;;;25.10;22.60;;;;;;;;;;5031724;28;20422;-61
2022/11/17 07:26:30;;;;;;;26.23;22.95;;;;;;;;;;5033997;28;20367;-58
2022/11/17 07:28:56;;;;;;;25.55;22.85;;;;;;;;;;5033844;28;20129;-57
2022/11/17 07:31:22;;;;;;;24.15;21.55;;;;;;;;;;5034084;28;20050;-61
2022/11/17 07:33:49;;;;;;;24.65;22.05;;;;;;;;;;5033096;28;20120;-60
2022/11/17 07:36:15;;;;;;;24.98;22.33;;;;;;;;;;5033303;28;20102;-57
2022/11/17 07:38:41;;;;;;;24.35;21.98;;;;;;;;;;5032386;28;20548;-58
2022/11/17 07:41:08;;;;;;;24.13;20.75;;;;;;;;;;5032096;28;20121;-59
2022/11/17 07:43:34;;;;;;;24.05;21.60;;;;;;;;;;5032647;28;20025;-58
2022/11/17 07:46:07;;;;;;;23.45;21.02;;;;;;;;;;5033232;28;20033;-55
2022/11/17 07:48:33;;;;;;;23.80;21.38;;;;;;;;;;5033570;28;20090;-59
2022/11/17 07:50:59;;;;;;;23.63;21.23;;;;;;;;;;5032076;28;20025;-61
2022/11/17 07:53:25;;;;;;;23.50;21.10;;;;;;;;;;5031103;28;20032;-57
2022/11/17 07:55:51;;;;;;;22.92;20.55;;;;;;;;;;5033222;28;20045;-60
2022/11/17 07:58:17;;;;;;;21.92;19.70;;;;;;;;;;5031984;28;20029;-64
2022/11/17 08:00:43;;;;;;;22.80;20.40;;;;;;;;;;5032594;28;20022;-62
2022/11/17 08:03:09;;;;;;;23.27;20.88;;;;;;;;;;5032982;28;20017;-64
2022/11/17 08:05:37;;;;;;;24.48;21.17;;;;;;;;;;5032829;28;20470;-61
2022/11/17 08:08:04;;;;;;;23.25;20.92;;;;;;;;;;5033028;28;20025;-63
2022/11/17 08:10:30;;;;;;;22.52;20.23;;;;;;;;;;5033328;28;20095;-63
2022/11/17 08:12:58;;;;;;;22.23;19.92;;;;;;;;;;5033072;28;20474;-61
2022/11/17 08:15:24;;;;;;;22.25;19.92;;;;;;;;;;5032555;28;20030;-63
2022/11/17 08:17:54;;;;;;;23.35;20.42;;;;;;;;;;5032872;28;20021;-64
2022/11/17 08:20:20;;;;;;;22.33;19.58;;;;;;;;;;5037798;28;20025;-63
2022/11/17 08:22:48;;;;;;;22.27;19.98;;;;;;;;;;5052880;28;20647;-63
2022/11/17 08:25:14;;;;;;;23.23;20.50;;;;;;;;;;5052370;28;20109;-66
2022/11/17 08:27:40;;;;;;;22.13;19.83;;;;;;;;;;5051571;28;20056;-65
2022/11/17 08:30:08;;;;;;;25.05;20.88;;;;;;;;;;5052891;28;20052;-60
2022/11/17 08:32:34;;;;;;;22.50;20.08;;;;;;;;;;5052825;28;20025;-58
2022/11/17 08:35:02;;;;;;;22.52;20.20;;;;;;;;;;5052207;28;20059;-60
2022/11/17 08:37:28;;;;;;;22.88;20.50;;;;;;;;;;5052851;28;20021;-58
2022/11/17 08:39:54;;;;;;;26.95;20.95;;;;;;;;;;5051800;28;20033;-59
2022/11/17 08:42:20;;;;;;;23.27;20.83;;;;;;;;;;5052821;28;20023;-59
2022/11/17 08:44:46;;;;;;;22.98;20.58;;;;;;;;;;5050709;28;20485;-57
2022/11/17 08:47:12;;;;;;;22.75;20.33;;;;;;;;;;5050760;28;20140;-57
2022/11/17 08:49:38;;;;;;;23.27;20.95;;;;;;;;;;5052465;28;20021;-62
2022/11/17 08:52:04;;;;;;;23.55;21.13;;;;;;;;;;5051456;28;20457;-57
2022/11/17 08:54:30;;;;;;;22.15;19.85;;;;;;;;;;5051538;28;20500;-56
2022/11/17 08:56:57;;;;;;;23.50;20.48;;;;;;;;;;5050444;28;20020;-60
2022/11/17 08:59:23;;;;;;;23.27;20.85;;;;;;;;;;5052364;28;20027;-58
2022/11/17 09:01:49;;;;;;;22.98;20.67;;;;;;;;;;5033860;28;20030;-52
2022/11/17 09:04:15;;;;;;;23.25;20.98;;;;;;;;;;5031315;28;20388;-58
2022/11/17 09:06:41;;;;;;;23.15;20.85;;;;;;;;;;5032564;28;20397;-57
2022/11/17 09:09:08;;;;;;;23.30;20.85;;;;;;;;;;5032303;28;20025;-57
2022/11/17 09:11:34;;;;;;;22.80;20.60;;;;;;;;;;5032518;28;20025;-60
2022/11/17 09:14:00;;;;;;;22.23;19.92;;;;;;;;;;5031494;28;20121;-57
2022/11/17 09:16:26;;;;;;;23.10;20.70;;;;;;;;;;5031240;28;20104;-58
2022/11/17 09:18:58;;;;;;;22.35;20.05;;;;;;;;;;5031182;28;20415;-60
2022/11/17 09:21:27;;;;;;;22.13;19.83;;;;;;;;;;5032269;28;20179;-60
2022/11/17 09:23:54;;;;;;;21.50;19.35;;;;;;;;;;5030285;28;20155;-62
2022/11/17 09:26:20;;;;;;;22.05;19.48;;;;;;;;;;5030892;28;20029;-64
2022/11/17 09:28:47;;;;;;;20.63;18.60;;;;;;;;;;5029759;28;20021;-61
2022/11/17 09:31:16;;;;;;;21.98;18.80;;;;;;;;;;5029597;28;20405;-63
2022/11/17 09:33:42;;;;;;;21.83;19.52;;;;;;;;;;5029321;28;20033;-64
2022/11/17 09:36:09;;;;;;;20.80;18.70;;;;;;;;;;5030268;28;20022;-63
2022/11/17 09:38:35;;;;;;;21.45;19.27;;;;;;;;;;5029880;28;20021;-64
2022/11/17 09:41:09;;;;;;;21.30;19.20;;;;;;;;;;5030314;28;20372;-61
2022/11/17 09:43:38;;;;;;;20.02;18.02;;;;;;;;;;5029783;28;20025;-60
2022/11/17 09:46:30;;;;;;;21.40;18.35;;;;;;;;;;5029894;28;20029;-61
2022/11/17 09:49:14;;;;;;;22.88;18.58;;;;;;;;;;5010327;28;20567;-62
2022/11/17 09:51:42;;;;;;;28.27;20.98;;;;;;;;;;5031669;28;20332;-62
2022/11/17 09:54:11;;;;;;;26.33;20.65;;;;;;;;;;5031190;28;20112;-61
2022/11/17 09:56:38;;;;;;;29.30;21.20;;;;;;;;;;5031969;28;20108;-59
2022/11/17 09:59:10;;;;;;;20.80;18.30;;;;;;;;;;5031987;28;20052;-61
2022/11/17 10:01:37;;;;;;;20.08;18.08;;;;;;;;;;5031825;28;20104;-64
2022/11/17 10:04:09;;;;;;;20.58;18.48;;;;;;;;;;5030269;28;20036;-62
2022/11/17 10:06:36;;;;;;;21.75;18.02;;;;;;;;;;5032482;28;20030;-62
2022/11/17 10:09:02;;;;;;;20.35;18.15;;;;;;;;;;5033445;28;20029;-61
2022/11/17 10:11:37;;;;;;;19.67;17.67;;;;;;;;;;5035994;28;20032;-58
2022/11/17 10:14:12;;;;;;;20.30;18.20;;;;;;;;;;5035418;28;20394;-61
2022/11/17 10:16:40;;;;;;;20.40;18.33;;;;;;;;;;5034838;28;20370;-62
2022/11/17 10:19:24;;;;;;;19.42;17.30;;;;;;;;;;5035956;28;20370;-63
2022/11/17 10:22:02;;;;;;;19.83;17.70;;;;;;;;;;5035867;28;20553;-61
2022/11/17 10:24:38;;;;;;;19.63;17.58;;;;;;;;;;5034745;28;20101;-60
2022/11/17 10:27:05;;;;;;;19.88;17.80;;;;;;;;;;5035348;28;20109;-62
2022/11/17 10:29:31;;;;;;;20.40;18.30;;;;;;;;;;5034211;28;20033;-60
2022/11/17 10:31:58;;;;;;;19.35;17.35;;;;;;;;;;5035141;28;20041;-62
2022/11/17 10:34:38;;;;;;;19.90;17.77;;;;;;;;;;5034745;28;20026;-61
2022/11/17 10:37:16;;;;;;;21.63;18.38;;;;;;;;;;5034100;28;20021;-61
2022/11/17 10:39:43;;;;;;;19.67;17.67;;;;;;;;;;5035477;28;20052;-61
2022/11/17 10:42:15;;;;;;;19.55;17.65;;;;;;;;;;5035299;28;20097;-64
2022/11/17 10:44:41;;;;;;;19.13;17.02;;;;;;;;;;5034598;28;20051;-62
2022/11/17 10:47:23;;;;;;;18.00;16.20;;;;;;;;;;5035151;28;20425;-61
2022/11/17 10:50:04;;;;;;;19.65;15.75;;;;;;;;;;5033323;28;20100;-62
2022/11/17 10:52:30;;;;;;;16.55;14.25;;;;;;;;;;5034071;28;20038;-63
2022/11/17 10:55:15;;;;;;;20.30;14.73;;;;;;;;;;5043976;28;20025;-64
2022/11/17 10:57:43;;;;;;;18.58;15.02;;;;;;;;;;5055071;28;20064;-63
2022/11/17 11:00:22;;;;;;;19.40;14.23;;;;;;;;;;5047711;28;20389;-62
2022/11/17 11:02:48;;;;;;;21.77;14.98;;;;;;;;;;5035248;28;20029;-60
2022/11/17 11:05:15;;;;;;;18.73;13.80;;;;;;;;;;5033217;28;20056;-60
2022/11/17 11:07:41;;;;;;;16.52;13.15;;;;;;;;;;5036345;28;20485;-61
2022/11/17 11:10:10;;;;;;;17.20;12.85;;;;;;;;;;5039066;28;20026;-59
2022/11/17 11:12:42;;;;;;;18.63;12.95;;;;;;;;;;5034760;28;20029;-61
2022/11/17 11:15:19;;;;;;;21.83;14.45;;;;;;;;;;5033930;28;20098;-64
2022/11/17 11:17:45;;;;;;;16.35;12.52;;;;;;;;;;5033386;28;20103;-61
2022/11/17 11:20:16;;;;;;;16.60;12.30;;;;;;;;;;5032927;28;20022;-60
2022/11/17 11:23:00;;;;;;;16.27;12.45;;;;;;;;;;5036957;28;20540;-63
2022/11/17 11:25:38;;;;;;;15.75;12.20;;;;;;;;;;5043905;28;20025;-61
2022/11/17 11:28:13;;;;;;;17.33;11.87;;;;;;;;;;5042041;28;20049;-62
2022/11/17 11:30:51;;;;;;;16.13;11.98;;;;;;;;;;5043657;28;20271;-62
2022/11/17 11:33:20;;;;;;;16.77;11.43;;;;;;;;;;5044394;28;20145;-61
2022/11/17 11:35:58;;;;;;;17.83;11.80;;;;;;;;;;5050736;28;20104;-62
2022/11/17 11:38:49;;;;;;;17.00;11.85;;;;;;;;;;5043600;28;20025;-63
2022/11/17 11:41:21;;;;;;;15.70;11.77;;;;;;;;;;5045112;28;20020;-62
2022/11/17 11:43:56;;;;;;;16.58;11.90;;;;;;;;;;5053715;28;20025;-63
2022/11/17 11:46:42;;;;;;;17.85;11.65;;;;;;;;;;5054196;28;20055;-61
2022/11/17 11:49:30;;;;;;;16.23;11.38;;;;;;;;;;5053760;28;20040;-61
2022/11/17 11:51:56;;;;;;;17.90;11.90;;;;;;;;;;5054374;28;20083;-63
2022/11/17 11:54:31;;;;;;;18.45;11.70;;;;;;;;;;5052815;28;20029;-59
2022/11/17 11:56:57;;;;;;;16.70;11.27;;;;;;;;;;5053692;28;20048;-64
2022/11/17 11:59:46;;;;;;;16.10;11.65;;;;;;;;;;5052394;28;20043;-62
2022/11/17 12:02:13;;;;;;;17.20;11.70;;;;;;;;;;5053771;28;20013;-61
2022/11/17 12:04:42;;;;;;;15.82;11.27;;;;;;;;;;5052837;28;20025;-61
2022/11/17 12:07:13;;;;;;;15.77;10.88;;;;;;;;;;5053529;28;20541;-61
2022/11/17 12:09:39;;;;;;;15.40;10.75;;;;;;;;;;5053437;28;20045;-62
2022/11/17 12:12:13;;;;;;;15.95;10.10;;;;;;;;;;5052026;28;20021;-62
2022/11/17 12:14:40;;;;;;;17.17;9.52;;;;;;;;;;5052401;28;20031;-60
2022/11/17 12:17:12;;;;;;;17.55;9.70;;;;;;;;;;5051750;28;20055;-60
2022/11/17 12:19:44;;;;;;;16.05;9.10;;;;;;;;;;5051630;28;20017;-61
2022/11/17 12:22:15;;;;;;;15.18;9.18;;;;;;;;;;5051867;28;20017;-62
2022/11/17 12:24:41;;;;;;;17.58;9.35;;;;;;;;;;5050125;28;20020;-59
2022/11/17 12:27:26;;;;;;;15.48;9.57;;;;;;;;;;5053244;28;20013;-63
2022/11/17 12:29:52;;;;;;;14.80;9.32;;;;;;;;;;5052109;28;20025;-62
2022/11/17 12:32:38;;;;;;;17.02;9.32;;;;;;;;;;5032239;28;20082;-59
2022/11/17 12:35:23;;;;;;;15.77;9.32;;;;;;;;;;5028720;28;20063;-60
2022/11/17 12:38:09;;;;;;;14.60;9.38;;;;;;;;;;5032678;28;20025;-62
2022/11/17 12:40:39;;;;;;;15.60;9.70;;;;;;;;;;5032969;28;20045;-59
2022/11/17 12:43:15;;;;;;;15.30;9.80;;;;;;;;;;5031919;28;20034;-61
2022/11/17 12:46:05;;;;;;;16.33;9.73;;;;;;;;;;5032706;28;20049;-62
2022/11/17 12:48:36;;;;;;;14.98;9.50;;;;;;;;;;5029193;28;20520;-59
2022/11/17 12:51:04;;;;;;;14.95;9.43;;;;;;;;;;5032335;28;20057;-63
2022/11/17 12:53:54;;;;;;;17.00;9.68;;;;;;;;;;5030236;28;20367;-60
2022/11/17 12:56:27;;;;;;;14.60;9.40;;;;;;;;;;5029070;28;20025;-62
2022/11/17 12:58:59;;;;;;;18.27;9.98;;;;;;;;;;5032490;28;20477;-58
2022/11/17 13:01:40;;;;;;;16.10;9.50;;;;;;;;;;5032927;28;20440;-62
2022/11/17 13:04:09;;;;;;;15.75;9.60;;;;;;;;;;5032054;28;20025;-61
2022/11/17 13:06:35;;;;;;;14.88;9.32;;;;;;;;;;5032291;28;20084;-61
2022/11/17 13:09:04;;;;;;;16.17;10.05;;;;;;;;;;5032425;28;20026;-61
2022/11/17 13:11:31;;;;;;;17.10;9.70;;;;;;;;;;5030481;28;20021;-60
2022/11/17 13:14:13;;;;;;;17.90;9.77;;;;;;;;;;5030237;28;20026;-60
2022/11/17 13:16:59;;;;;;;18.67;9.25;;;;;;;;;;5030614;28;20116;-60
2022/11/17 13:19:27;;;;;;;15.57;9.43;;;;;;;;;;5032132;28;20486;-63
2022/11/17 13:21:53;;;;;;;;;;;;;;;;;;5031108;28;20032;-61
2022/11/17 13:24:29;;;;;;;18.40;9.20;;;;;;;;;;5030053;28;20369;-61
2022/11/17 13:26:59;;;;;;;15.85;9.30;;;;;;;;;;5031915;28;20470;-64
2022/11/17 13:29:25;;;;;;;14.80;9.10;;;;;;;;;;5032032;28;20031;-61
2022/11/17 13:32:04;;;;;;;16.33;9.32;;;;;;;;;;5032134;28;20056;-61
2022/11/17 13:34:30;;;;;;;14.73;9.43;;;;;;;;;;5029789;28;20030;-62
2022/11/17 13:36:57;;;;;;;14.50;9.05;;;;;;;;;;4681998;28;10000439;-64
2022/11/17 13:39:25;;;;;;;16.00;9.38;;;;;;;;;;5042486;28;20048;-64
2022/11/17 13:41:51;;;;;;;17.02;9.55;;;;;;;;;;5036784;28;20051;-64
2022/11/17 13:44:19;;;;;;;15.93;9.65;;;;;;;;;;5047409;28;20033;-65
2022/11/17 13:46:45;;;;;;;14.45;9.23;;;;;;;;;;5035580;28;20051;-65
2022/11/17 13:49:30;;;;;;;15.18;9.80;;;;;;;;;;5043191;28;20785;-59
2022/11/17 13:51:56;;;;;;;16.42;10.30;;;;;;;;;;5048527;28;20029;-63
2022/11/17 13:54:23;;;;;;;15.45;9.77;;;;;;;;;;5043071;28;20408;-63
2022/11/17 13:56:51;;;;;;;16.08;9.70;;;;;;;;;;5031734;28;20030;-64
2022/11/17 13:59:26;;;;;;;15.90;9.00;;;;;;;;;;5032544;28;20026;-64
2022/11/17 14:02:11;;;;;;;15.65;9.13;;;;;;;;;;5035936;28;20110;-64
2022/11/17 14:04:37;;;;;;;14.93;9.40;;;;;;;;;;5034188;28;20037;-63
2022/11/17 14:07:03;;;;;;;16.38;10.18;;;;;;;;;;5032351;28;20029;-63
2022/11/17 14:09:33;;;;;;;15.55;10.43;;;;;;;;;;5029218;28;20041;-63
2022/11/17 14:12:00;;;;;;;17.25;10.73;;;;;;;;;;5037824;28;20029;-61
2022/11/17 14:14:46;;;;;;;15.95;10.35;;;;;;;;;;5047433;28;20025;-62
2022/11/17 14:17:18;;;;;;;18.33;10.98;;;;;;;;;;5063748;28;20048;-62
2022/11/17 14:19:44;;;;;;;18.05;10.68;;;;;;;;;;5048056;28;20036;-60
2022/11/17 14:22:10;;;;;;;18.65;10.18;;;;;;;;;;5047784;28;20116;-63
2022/11/17 14:24:37;;;;;;;15.90;10.15;;;;;;;;;;5047422;28;20178;-60
2022/11/17 14:27:11;;;;;;;15.75;10.40;;;;;;;;;;5047644;28;20029;-59
2022/11/17 14:29:37;;;;;;;15.35;10.43;;;;;;;;;;5047876;28;20025;-65
2022/11/17 14:32:03;;;;;;;14.95;9.80;;;;;;;;;;5046331;28;20188;-62
2022/11/17 14:34:29;;;;;;;15.05;9.80;;;;;;;;;;5047170;28;20029;-62
2022/11/17 14:36:55;;;;;;;16.98;10.32;;;;;;;;;;5047906;28;20027;-63
2022/11/17 14:39:22;;;;;;;15.65;10.68;;;;;;;;;;5048424;28;20021;-63
2022/11/17 14:41:49;;;;;;;16.10;13.65;;;;;;;;;;5048346;28;20528;-64
2022/11/17 14:44:15;;;;;;;17.15;14.88;;;;;;;;;;5047251;28;20392;-63
2022/11/17 14:46:41;;;;;;;20.73;15.70;;;;;;;;;;5047431;28;20036;-64
2022/11/17 14:49:07;;;;;;;18.05;14.32;;;;;;;;;;5046803;28;20037;-61
2022/11/17 14:51:34;;;;;;;18.42;14.40;;;;;;;;;;5047574;28;20404;-63
2022/11/17 14:54:00;;;;;;;17.08;13.05;;;;;;;;;;5044982;28;20029;-59
2022/11/17 14:56:26;;;;;;;18.15;13.70;;;;;;;;;;5049325;28;20025;-65
2022/11/17 14:58:53;;;;;;;18.65;14.30;;;;;;;;;;5051522;28;20021;-63
2022/11/17 15:01:27;;;;;;;17.77;13.68;;;;;;;;;;5050220;28;20024;-61
2022/11/17 15:03:54;;;;;;;17.05;13.50;;;;;;;;;;5050996;28;20027;-63